sensor_id;sensor_type;location;lat;lon;timestamp;pressure;altitude;pressure_sealevel;temperature;humidity
21102;BME280;10709;49.006;12.100;2023-04-02T00:06:39;49024.22;;;-146.00;99.88
21102;BME280;10709;49.006;12.100;2023-04-02T00:11:42;49014.41;;;-146.00;100.00
21102;BME280;10709;49.006;12.100;2023-04-02T00:14:22;48996.78;;;-146.00;100.00
21102;BME280;10709;49.006;12.100;2023-04-02T00:16:51;48988.94;;;-146.00;100.00
21102;BME280;10709;49.006;12.100;2023-04-02T00:19:55;49012.47;;;-146.00;100.00
21102;BME280;10709;49.006;12.100;2023-04-02T00:22:29;49006.59;;;-146.00;100.00
21102;BME280;10709;49.006;12.100;2023-04-02T00:24:59;49022.25;;;-146.00;100.00
21102;BME280;10709;49.006;12.100;2023-04-02T00:27:29;49008.53;;;-146.00;100.00
21102;BME280;10709;49.006;12.100;2023-04-02T00:29:57;49008.53;;;-146.00;100.00
21102;BME280;10709;49.006;12.100;2023-04-02T00:32:27;49020.31;;;-146.00;100.00
21102;BME280;10709;49.006;12.100;2023-04-02T00:34:56;49020.31;;;-146.00;100.00
21102;BME280;10709;49.006;12.100;2023-04-02T00:37:26;48996.78;;;-146.00;100.00
21102;BME280;10709;49.006;12.100;2023-04-02T00:40:02;49002.66;;;-146.00;100.00
21102;BME280;10709;49.006;12.100;2023-04-02T00:42:33;49008.53;;;-146.00;100.00
21102;BME280;10709;49.006;12.100;2023-04-02T00:45:01;49004.63;;;-146.00;100.00
21102;BME280;10709;49.006;12.100;2023-04-02T00:47:34;48992.88;;;-146.00;100.00
21102;BME280;10709;49.006;12.100;2023-04-02T00:50:18;49016.38;;;-146.00;100.00
21102;BME280;10709;49.006;12.100;2023-04-02T00:52:49;49010.50;;;-146.00;100.00
21102;BME280;10709;49.006;12.100;2023-04-02T00:55:31;48996.78;;;-146.00;100.00
21102;BME280;10709;49.006;12.100;2023-04-02T00:58:00;48996.78;;;-146.00;100.00
21102;BME280;10709;49.006;12.100;2023-04-02T01:00:28;48988.94;;;-146.00;100.00
21102;BME280;10709;49.006;12.100;2023-04-02T01:05:46;48988.94;;;-146.00;100.00
21102;BME280;10709;49.006;12.100;2023-04-02T01:11:29;48996.78;;;-146.00;100.00
21102;BME280;10709;49.006;12.100;2023-04-02T01:14:02;48985.03;;;-146.00;100.00
21102;BME280;10709;49.006;12.100;2023-04-02T01:24:32;48992.88;;;-146.00;100.00
21102;BME280;10709;49.006;12.100;2023-04-02T01:29:55;48994.84;;;-146.00;100.00
21102;BME280;10709;49.006;12.100;2023-04-02T01:32:25;49008.53;;;-146.00;100.00
21102;BME280;10709;49.006;12.100;2023-04-02T01:34:53;49004.63;;;-146.00;100.00
21102;BME280;10709;49.006;12.100;2023-04-02T01:37:24;48994.84;;;-146.00;100.00
21102;BME280;10709;49.006;12.100;2023-04-02T01:40:15;49004.63;;;-146.00;100.00
21102;BME280;10709;49.006;12.100;2023-04-02T01:42:56;48987.00;;;-146.00;100.00
21102;BME280;10709;49.006;12.100;2023-04-02T01:45:27;48992.88;;;-146.00;100.00
21102;BME280;10709;49.006;12.100;2023-04-02T01:47:55;49010.50;;;-146.00;100.00
21102;BME280;10709;49.006;12.100;2023-04-02T01:50:26;48987.00;;;-146.00;100.00
21102;BME280;10709;49.006;12.100;2023-04-02T01:53:04;49012.47;;;-146.00;100.00
21102;BME280;10709;49.006;12.100;2023-04-02T01:55:34;49000.72;;;-146.00;100.00
21102;BME280;10709;49.006;12.100;2023-04-02T01:58:04;49004.63;;;-146.00;100.00
21102;BME280;10709;49.006;12.100;2023-04-02T02:00:33;48987.00;;;-146.00;100.00
21102;BME280;10709;49.006;12.100;2023-04-02T02:03:02;49004.63;;;-146.00;100.00
21102;BME280;10709;49.006;12.100;2023-04-02T02:05:30;48994.84;;;-146.00;100.00
21102;BME280;10709;49.006;12.100;2023-04-02T02:07:58;48983.06;;;-146.00;100.00
21102;BME280;10709;49.006;12.100;2023-04-02T02:10:38;49000.72;;;-146.00;100.00
21102;BME280;10709;49.006;12.100;2023-04-02T02:13:04;48988.94;;;-146.00;100.00
21102;BME280;10709;49.006;12.100;2023-04-02T02:15:32;48988.94;;;-146.00;100.00
21102;BME280;10709;49.006;12.100;2023-04-02T02:18:03;48977.19;;;-146.00;100.00
21102;BME280;10709;49.006;12.100;2023-04-02T02:20:31;48977.19;;;-146.00;100.00
21102;BME280;10709;49.006;12.100;2023-04-02T02:23:00;48988.94;;;-146.00;100.00
21102;BME280;10709;49.006;12.100;2023-04-02T02:25:30;48977.19;;;-146.00;100.00
21102;BME280;10709;49.006;12.100;2023-04-02T02:28:20;48988.94;;;-146.00;100.00
21102;BME280;10709;49.006;12.100;2023-04-02T02:31:01;48985.03;;;-146.00;100.00
21102;BME280;10709;49.006;12.100;2023-04-02T02:33:53;48996.78;;;-146.00;100.00
21102;BME280;10709;49.006;12.100;2023-04-02T02:36:46;48992.88;;;-146.00;100.00
21102;BME280;10709;49.006;12.100;2023-04-02T02:39:33;48992.88;;;-146.00;100.00
21102;BME280;10709;49.006;12.100;2023-04-02T02:43:01;48979.16;;;-146.00;100.00
21102;BME280;10709;49.006;12.100;2023-04-02T02:45:21;48985.03;;;-146.00;100.00
21102;BME280;10709;49.006;12.100;2023-04-02T02:47:50;48975.25;;;-146.00;100.00
21102;BME280;10709;49.006;12.100;2023-04-02T02:50:22;48988.94;;;-146.00;100.00
21102;BME280;10709;49.006;12.100;2023-04-02T02:52:52;48987.00;;;-146.00;100.00
21102;BME280;10709;49.006;12.100;2023-04-02T02:55:23;48981.13;;;-146.00;100.00
21102;BME280;10709;49.006;12.100;2023-04-02T02:57:56;48992.88;;;-146.00;100.00
21102;BME280;10709;49.006;12.100;2023-04-02T03:00:24;48996.78;;;-146.00;100.00
21102;BME280;10709;49.006;12.100;2023-04-02T03:02:53;48981.13;;;-146.00;100.00
21102;BME280;10709;49.006;12.100;2023-04-02T03:05:25;48981.13;;;-146.00;100.00
21102;BME280;10709;49.006;12.100;2023-04-02T03:07:55;48985.03;;;-146.00;100.00
21102;BME280;10709;49.006;12.100;2023-04-02T03:10:37;48981.13;;;-146.00;100.00
21102;BME280;10709;49.006;12.100;2023-04-02T03:21:47;48961.53;;;-146.00;100.00
21102;BME280;10709;49.006;12.100;2023-04-02T03:24:21;48941.94;;;-146.00;100.00
21102;BME280;10709;49.006;12.100;2023-04-02T03:27:09;48938.03;;;-146.00;100.00
21102;BME280;10709;49.006;12.100;2023-04-02T03:29:45;48943.91;;;-146.00;100.00
21102;BME280;10709;49.006;12.100;2023-04-02T03:32:19;48926.25;;;-146.00;100.00
21102;BME280;10709;49.006;12.100;2023-04-02T03:34:55;48932.13;;;-146.00;100.00
21102;BME280;10709;49.006;12.100;2023-04-02T03:37:28;48926.25;;;-146.00;100.00
21102;BME280;10709;49.006;12.100;2023-04-02T03:40:30;48926.25;;;-146.00;100.00
21102;BME280;10709;49.006;12.100;2023-04-02T03:43:04;48930.19;;;-146.00;100.00
21102;BME280;10709;49.006;12.100;2023-04-02T03:45:43;48930.19;;;-146.00;100.00
21102;BME280;10709;49.006;12.100;2023-04-02T03:48:20;48928.22;;;-146.00;100.00
21102;BME280;10709;49.006;12.100;2023-04-02T03:50:57;48939.97;;;-146.00;100.00
21102;BME280;10709;49.006;12.100;2023-04-02T03:53:26;48938.03;;;-146.00;100.00
21102;BME280;10709;49.006;12.100;2023-04-02T03:55:55;48949.78;;;-146.00;100.00
21102;BME280;10709;49.006;12.100;2023-04-02T03:58:26;48934.09;;;-146.00;100.00
21102;BME280;10709;49.006;12.100;2023-04-02T04:01:01;48934.09;;;-146.00;100.00
21102;BME280;10709;49.006;12.100;2023-04-02T04:03:40;48930.19;;;-146.00;100.00
21102;BME280;10709;49.006;12.100;2023-04-02T04:06:15;48928.22;;;-146.00;100.00
21102;BME280;10709;49.006;12.100;2023-04-02T04:08:51;48914.50;;;-146.00;100.00
21102;BME280;10709;49.006;12.100;2023-04-02T04:11:27;48916.47;;;-146.00;100.00
21102;BME280;10709;49.006;12.100;2023-04-02T04:17:04;48910.59;;;-146.00;100.00
21102;BME280;10709;49.006;12.100;2023-04-02T04:19:45;48914.50;;;-146.00;100.00
21102;BME280;10709;49.006;12.100;2023-04-02T04:22:18;48912.56;;;-146.00;100.00
21102;BME280;10709;49.006;12.100;2023-04-02T04:24:57;48906.69;;;-146.00;100.00
21102;BME280;10709;49.006;12.100;2023-04-02T04:27:42;48910.59;;;-146.00;100.00
21102;BME280;10709;49.006;12.100;2023-04-02T04:32:55;48910.59;;;-146.00;100.00
21102;BME280;10709;49.006;12.100;2023-04-02T04:35:29;48922.34;;;-146.00;100.00
21102;BME280;10709;49.006;12.100;2023-04-02T04:38:05;48912.56;;;-146.00;100.00
21102;BME280;10709;49.006;12.100;2023-04-02T04:40:43;48910.59;;;-146.00;100.00
21102;BME280;10709;49.006;12.100;2023-04-02T04:43:19;48906.69;;;-146.00;100.00
21102;BME280;10709;49.006;12.100;2023-04-02T04:45:55;48906.69;;;-146.00;100.00
21102;BME280;10709;49.006;12.100;2023-04-02T04:48:32;48906.69;;;-146.00;100.00
21102;BME280;10709;49.006;12.100;2023-04-02T04:51:07;48910.59;;;-146.00;100.00
21102;BME280;10709;49.006;12.100;2023-04-02T04:53:44;48912.56;;;-146.00;100.00
21102;BME280;10709;49.006;12.100;2023-04-02T04:56:11;48898.84;;;-146.00;100.00
21102;BME280;10709;49.006;12.100;2023-04-02T05:01:23;48898.84;;;-146.00;100.00
21102;BME280;10709;49.006;12.100;2023-04-02T05:04:05;48894.91;;;-146.00;100.00
21102;BME280;10709;49.006;12.100;2023-04-02T05:06:40;48894.91;;;-146.00;100.00
21102;BME280;10709;49.006;12.100;2023-04-02T05:09:20;48898.84;;;-146.00;100.00
21102;BME280;10709;49.006;12.100;2023-04-02T05:12:16;48885.13;;;-146.00;100.00
21102;BME280;10709;49.006;12.100;2023-04-02T05:14:55;48887.09;;;-146.00;100.00
21102;BME280;10709;49.006;12.100;2023-04-02T05:17:30;48887.09;;;-146.00;100.00
21102;BME280;10709;49.006;12.100;2023-04-02T05:20:26;48883.16;;;-146.00;100.00
21102;BME280;10709;49.006;12.100;2023-04-02T05:28:42;48871.41;;;-146.00;100.00
21102;BME280;10709;49.006;12.100;2023-04-02T05:31:19;48869.44;;;-146.00;100.00
21102;BME280;10709;49.006;12.100;2023-04-02T05:33:47;48871.41;;;-146.00;100.00
21102;BME280;10709;49.006;12.100;2023-04-02T05:36:20;48863.56;;;-146.00;100.00
21102;BME280;10709;49.006;12.100;2023-04-02T05:38:49;48867.50;;;-146.00;100.00
21102;BME280;10709;49.006;12.100;2023-04-02T05:41:36;48861.63;;;-146.00;100.00
21102;BME280;10709;49.006;12.100;2023-04-02T05:44:35;48851.81;;;-146.00;100.00
21102;BME280;10709;49.006;12.100;2023-04-02T05:47:13;48851.81;;;-146.00;100.00
21102;BME280;10709;49.006;12.100;2023-04-02T05:49:48;48855.75;;;-146.00;100.00
21102;BME280;10709;49.006;12.100;2023-04-02T05:52:28;48847.91;;;-146.00;100.00
21102;BME280;10709;49.006;12.100;2023-04-02T05:57:47;48847.91;;;-146.00;100.00
21102;BME280;10709;49.006;12.100;2023-04-02T06:03:10;48844.00;;;-146.00;100.00
21102;BME280;10709;49.006;12.100;2023-04-02T06:05:42;48840.06;;;-146.00;100.00
21102;BME280;10709;49.006;12.100;2023-04-02T06:08:18;48840.06;;;-146.00;100.00
21102;BME280;10709;49.006;12.100;2023-04-02T06:10:54;48838.09;;;-146.00;100.00
21102;BME280;10709;49.006;12.100;2023-04-02T06:13:24;48840.06;;;-146.00;100.00
21102;BME280;10709;49.006;12.100;2023-04-02T06:15:50;48844.00;;;-146.00;100.00
21102;BME280;10709;49.006;12.100;2023-04-02T06:18:28;48838.09;;;-146.00;100.00
21102;BME280;10709;49.006;12.100;2023-04-02T06:20:55;48840.06;;;-146.00;100.00
21102;BME280;10709;49.006;12.100;2023-04-02T06:23:36;48840.06;;;-146.00;100.00
21102;BME280;10709;49.006;12.100;2023-04-02T06:28:41;48836.16;;;-146.00;100.00
21102;BME280;10709;49.006;12.100;2023-04-02T06:31:24;48836.16;;;-146.00;100.00
21102;BME280;10709;49.006;12.100;2023-04-02T06:33:53;48838.09;;;-146.00;100.00
21102;BME280;10709;49.006;12.100;2023-04-02T06:36:23;48828.31;;;-146.00;100.00
21102;BME280;10709;49.006;12.100;2023-04-02T06:38:56;48838.09;;;-146.00;100.00
21102;BME280;10709;49.006;12.100;2023-04-02T06:41:24;48836.16;;;-146.00;100.00
21102;BME280;10709;49.006;12.100;2023-04-02T06:44:01;48840.06;;;-146.00;100.00
21102;BME280;10709;49.006;12.100;2023-04-02T06:46:34;48836.16;;;-146.00;100.00
21102;BME280;10709;49.006;12.100;2023-04-02T06:51:43;48834.19;;;-146.00;100.00
21102;BME280;10709;49.006;12.100;2023-04-02T06:54:14;48832.22;;;-146.00;100.00
21102;BME280;10709;49.006;12.100;2023-04-02T06:56:44;48834.19;;;-146.00;100.00
21102;BME280;10709;49.006;12.100;2023-04-02T06:59:12;48836.16;;;-146.00;100.00
21102;BME280;10709;49.006;12.100;2023-04-02T07:01:55;48832.22;;;-146.00;100.00
21102;BME280;10709;49.006;12.100;2023-04-02T07:04:23;48834.19;;;-146.00;100.00
21102;BME280;10709;49.006;12.100;2023-04-02T07:06:50;48832.22;;;-146.00;100.00
21102;BME280;10709;49.006;12.100;2023-04-02T07:09:16;48834.19;;;-146.00;100.00
21102;BME280;10709;49.006;12.100;2023-04-02T07:11:42;48836.16;;;-146.00;100.00
21102;BME280;10709;49.006;12.100;2023-04-02T07:14:11;48836.16;;;-146.00;100.00
21102;BME280;10709;49.006;12.100;2023-04-02T07:16:41;48832.22;;;-146.00;100.00
21102;BME280;10709;49.006;12.100;2023-04-02T07:19:20;48828.31;;;-146.00;100.00
21102;BME280;10709;49.006;12.100;2023-04-02T07:21:47;48836.16;;;-146.00;100.00
21102;BME280;10709;49.006;12.100;2023-04-02T07:24:13;48832.22;;;-146.00;100.00
21102;BME280;10709;49.006;12.100;2023-04-02T07:26:40;48836.16;;;-146.00;100.00
21102;BME280;10709;49.006;12.100;2023-04-02T07:29:08;48830.28;;;-146.00;100.00
21102;BME280;10709;49.006;12.100;2023-04-02T07:31:38;48832.22;;;-146.00;100.00
21102;BME280;10709;49.006;12.100;2023-04-02T07:34:06;48836.16;;;-146.00;100.00
21102;BME280;10709;49.006;12.100;2023-04-02T07:36:33;48836.16;;;-146.00;100.00
21102;BME280;10709;49.006;12.100;2023-04-02T07:39:00;48832.22;;;-146.00;100.00
21102;BME280;10709;49.006;12.100;2023-04-02T07:41:27;48836.16;;;-146.00;100.00
21102;BME280;10709;49.006;12.100;2023-04-02T07:43:53;48836.16;;;-146.00;100.00
21102;BME280;10709;49.006;12.100;2023-04-02T07:46:20;48836.16;;;-146.00;100.00
21102;BME280;10709;49.006;12.100;2023-04-02T07:48:47;48830.28;;;-146.00;100.00
21102;BME280;10709;49.006;12.100;2023-04-02T07:51:24;48832.22;;;-146.00;100.00
21102;BME280;10709;49.006;12.100;2023-04-02T07:53:51;48832.22;;;-146.00;100.00
21102;BME280;10709;49.006;12.100;2023-04-02T07:56:23;48830.28;;;-146.00;100.00
21102;BME280;10709;49.006;12.100;2023-04-02T07:58:50;48834.19;;;-146.00;100.00
21102;BME280;10709;49.006;12.100;2023-04-02T08:01:22;48832.22;;;-146.00;100.00
21102;BME280;10709;49.006;12.100;2023-04-02T08:03:53;48840.06;;;-146.00;100.00
21102;BME280;10709;49.006;12.100;2023-04-02T08:06:20;48832.22;;;-146.00;100.00
21102;BME280;10709;49.006;12.100;2023-04-02T08:08:47;48832.22;;;-146.00;100.00
21102;BME280;10709;49.006;12.100;2023-04-02T08:11:14;48836.16;;;-146.00;100.00
21102;BME280;10709;49.006;12.100;2023-04-02T08:13:42;48832.22;;;-146.00;100.00
21102;BME280;10709;49.006;12.100;2023-04-02T08:16:09;48828.31;;;-146.00;100.00
21102;BME280;10709;49.006;12.100;2023-04-02T08:18:35;48830.28;;;-146.00;100.00
21102;BME280;10709;49.006;12.100;2023-04-02T08:21:05;48836.16;;;-146.00;100.00
21102;BME280;10709;49.006;12.100;2023-04-02T08:23:33;48828.31;;;-146.00;100.00
21102;BME280;10709;49.006;12.100;2023-04-02T08:26:01;48828.31;;;-146.00;100.00
21102;BME280;10709;49.006;12.100;2023-04-02T08:28:27;48832.22;;;-146.00;100.00
21102;BME280;10709;49.006;12.100;2023-04-02T08:30:54;48830.28;;;-146.00;100.00
21102;BME280;10709;49.006;12.100;2023-04-02T08:33:20;48834.19;;;-146.00;100.00
21102;BME280;10709;49.006;12.100;2023-04-02T08:35:48;48836.16;;;-146.00;100.00
21102;BME280;10709;49.006;12.100;2023-04-02T08:38:20;48836.16;;;-146.00;100.00
21102;BME280;10709;49.006;12.100;2023-04-02T08:40:52;48832.22;;;-146.00;100.00
21102;BME280;10709;49.006;12.100;2023-04-02T08:43:37;48836.16;;;-146.00;100.00
21102;BME280;10709;49.006;12.100;2023-04-02T08:46:22;48830.28;;;-146.00;100.00
21102;BME280;10709;49.006;12.100;2023-04-02T08:48:56;48836.16;;;-146.00;100.00
21102;BME280;10709;49.006;12.100;2023-04-02T08:51:31;48834.19;;;-146.00;100.00
21102;BME280;10709;49.006;12.100;2023-04-02T08:54:19;48838.09;;;-146.00;100.00
21102;BME280;10709;49.006;12.100;2023-04-02T08:56:51;48832.22;;;-146.00;100.00
21102;BME280;10709;49.006;12.100;2023-04-02T08:59:34;48834.19;;;-146.00;100.00
21102;BME280;10709;49.006;12.100;2023-04-02T09:02:14;48832.22;;;-146.00;100.00
21102;BME280;10709;49.006;12.100;2023-04-02T09:04:47;48832.22;;;-146.00;100.00
21102;BME280;10709;49.006;12.100;2023-04-02T09:07:15;48832.22;;;-146.00;100.00
21102;BME280;10709;49.006;12.100;2023-04-02T09:09:42;48832.22;;;-146.00;100.00
21102;BME280;10709;49.006;12.100;2023-04-02T09:12:25;48836.16;;;-146.00;100.00
21102;BME280;10709;49.006;12.100;2023-04-02T09:17:38;48832.22;;;-146.00;100.00
21102;BME280;10709;49.006;12.100;2023-04-02T09:20:23;48834.19;;;-146.00;100.00
21102;BME280;10709;49.006;12.100;2023-04-02T09:22:51;48828.31;;;-146.00;100.00
21102;BME280;10709;49.006;12.100;2023-04-02T09:25:25;48828.31;;;-146.00;100.00
21102;BME280;10709;49.006;12.100;2023-04-02T09:27:53;48832.22;;;-146.00;100.00
21102;BME280;10709;49.006;12.100;2023-04-02T09:32:58;48832.22;;;-146.00;100.00
21102;BME280;10709;49.006;12.100;2023-04-02T09:35:35;48832.22;;;-146.00;100.00
21102;BME280;10709;49.006;12.100;2023-04-02T09:45:54;48830.28;;;-146.00;100.00
21102;BME280;10709;49.006;12.100;2023-04-02T09:51:18;48830.28;;;-146.00;100.00
21102;BME280;10709;49.006;12.100;2023-04-02T09:56:31;48828.31;;;-146.00;100.00
21102;BME280;10709;49.006;12.100;2023-04-02T09:59:02;48826.34;;;-146.00;100.00
21102;BME280;10709;49.006;12.100;2023-04-02T10:01:35;48832.22;;;-146.00;100.00
21102;BME280;10709;49.006;12.100;2023-04-02T10:04:05;48830.28;;;-146.00;100.00
21102;BME280;10709;49.006;12.100;2023-04-02T10:06:33;48836.16;;;-146.00;100.00
21102;BME280;10709;49.006;12.100;2023-04-02T10:09:19;48836.16;;;-146.00;100.00
21102;BME280;10709;49.006;12.100;2023-04-02T10:11:47;48832.22;;;-146.00;100.00
21102;BME280;10709;49.006;12.100;2023-04-02T10:14:24;48836.16;;;-146.00;100.00
21102;BME280;10709;49.006;12.100;2023-04-02T10:17:11;48834.19;;;-146.00;100.00
21102;BME280;10709;49.006;12.100;2023-04-02T10:19:44;48830.28;;;-146.00;100.00
21102;BME280;10709;49.006;12.100;2023-04-02T10:22:17;48832.22;;;-146.00;100.00
21102;BME280;10709;49.006;12.100;2023-04-02T10:24:44;48836.16;;;-146.00;100.00
21102;BME280;10709;49.006;12.100;2023-04-02T10:33:06;48832.22;;;-146.00;100.00
21102;BME280;10709;49.006;12.100;2023-04-02T10:35:46;48836.16;;;-146.00;100.00
21102;BME280;10709;49.006;12.100;2023-04-02T10:55:37;48834.19;;;-146.00;100.00
21102;BME280;10709;49.006;12.100;2023-04-02T10:58:22;48836.16;;;-146.00;100.00
21102;BME280;10709;49.006;12.100;2023-04-02T11:00:55;48836.16;;;-146.00;100.00
21102;BME280;10709;49.006;12.100;2023-04-02T11:03:38;48834.19;;;-146.00;100.00
21102;BME280;10709;49.006;12.100;2023-04-02T11:06:19;48832.22;;;-146.00;100.00
21102;BME280;10709;49.006;12.100;2023-04-02T11:08:50;48830.28;;;-146.00;100.00
21102;BME280;10709;49.006;12.100;2023-04-02T11:11:22;48832.22;;;-146.00;100.00
21102;BME280;10709;49.006;12.100;2023-04-02T11:13:58;48836.16;;;-146.00;100.00
21102;BME280;10709;49.006;12.100;2023-04-02T11:16:26;48838.09;;;-146.00;100.00
21102;BME280;10709;49.006;12.100;2023-04-02T11:21:58;48836.16;;;-146.00;100.00
21102;BME280;10709;49.006;12.100;2023-04-02T11:27:06;48834.19;;;-146.00;100.00
21102;BME280;10709;49.006;12.100;2023-04-02T11:37:42;48851.81;;;-146.00;100.00
21102;BME280;10709;49.006;12.100;2023-04-02T11:42:39;48892.97;;;-146.00;100.00
21102;BME280;10709;49.006;12.100;2023-04-02T11:50:41;48969.38;;;-146.00;100.00
21102;BME280;10709;49.006;12.100;2023-04-02T11:55:38;48898.84;;;-146.00;100.00
21102;BME280;10709;49.006;12.100;2023-04-02T12:09:55;48981.13;;;-146.00;100.00
21102;BME280;10709;49.006;12.100;2023-04-02T12:14:54;48941.94;;;-146.00;100.00
21102;BME280;10709;49.006;12.100;2023-04-02T12:17:31;48932.13;;;-146.00;100.00
21102;BME280;10709;49.006;12.100;2023-04-02T12:20:16;48912.56;;;-146.00;100.00
21102;BME280;10709;49.006;12.100;2023-04-02T12:22:48;48938.03;;;-146.00;100.00
21102;BME280;10709;49.006;12.100;2023-04-02T12:27:45;49020.31;;;-146.00;100.00
21102;BME280;10709;49.006;12.100;2023-04-02T12:30:23;48961.53;;;-146.00;100.00
21102;BME280;10709;49.006;12.100;2023-04-02T12:32:49;49020.31;;;-146.00;100.00
21102;BME280;10709;49.006;12.100;2023-04-02T12:37:52;48973.28;;;-146.00;100.00
21102;BME280;10709;49.006;12.100;2023-04-02T12:40:19;48973.28;;;-146.00;100.00
21102;BME280;10709;49.006;12.100;2023-04-02T12:42:46;48965.44;;;-146.00;100.00
21102;BME280;10709;49.006;12.100;2023-04-02T12:45:23;48981.13;;;-146.00;100.00
21102;BME280;10709;49.006;12.100;2023-04-02T12:47:52;48973.28;;;-146.00;100.00
21102;BME280;10709;49.006;12.100;2023-04-02T12:50:20;48996.78;;;-146.00;100.00
21102;BME280;10709;49.006;12.100;2023-04-02T12:52:49;48988.94;;;-146.00;100.00
21102;BME280;10709;49.006;12.100;2023-04-02T12:55:25;48973.28;;;-146.00;100.00
21102;BME280;10709;49.006;12.100;2023-04-02T12:57:57;48981.13;;;-146.00;100.00
21102;BME280;10709;49.006;12.100;2023-04-02T13:05:33;49006.59;;;-146.00;100.00
21102;BME280;10709;49.006;12.100;2023-04-02T13:08:01;49016.38;;;-146.00;97.97
21102;BME280;10709;49.006;12.100;2023-04-02T13:10:28;49010.50;;;-146.00;99.50
21102;BME280;10709;49.006;12.100;2023-04-02T13:12:56;49035.97;;;-146.00;97.91
21102;BME280;10709;49.006;12.100;2023-04-02T13:15:34;49006.59;;;-146.00;99.42
21102;BME280;10709;49.006;12.100;2023-04-02T13:20:42;49004.63;;;-146.00;100.00
21102;BME280;10709;49.006;12.100;2023-04-02T13:25:58;49032.06;;;-146.00;100.00
21102;BME280;10709;49.006;12.100;2023-04-02T13:28:25;48992.88;;;-146.00;100.00
21102;BME280;10709;49.006;12.100;2023-04-02T13:30:52;49024.22;;;-146.00;100.00
21102;BME280;10709;49.006;12.100;2023-04-02T13:33:18;48988.94;;;-146.00;100.00
21102;BME280;10709;49.006;12.100;2023-04-02T13:35:45;48981.13;;;-146.00;100.00
21102;BME280;10709;49.006;12.100;2023-04-02T13:38:12;49014.41;;;-146.00;100.00
21102;BME280;10709;49.006;12.100;2023-04-02T13:40:39;49000.72;;;-146.00;100.00
21102;BME280;10709;49.006;12.100;2023-04-02T13:43:05;48987.00;;;-146.00;100.00
21102;BME280;10709;49.006;12.100;2023-04-02T13:45:35;49004.63;;;-146.00;100.00
21102;BME280;10709;49.006;12.100;2023-04-02T13:48:03;49018.34;;;-146.00;100.00
21102;BME280;10709;49.006;12.100;2023-04-02T13:50:32;48996.78;;;-146.00;100.00
21102;BME280;10709;49.006;12.100;2023-04-02T13:53:06;49004.63;;;-146.00;100.00
21102;BME280;10709;49.006;12.100;2023-04-02T13:55:38;49020.31;;;-146.00;100.00
21102;BME280;10709;49.006;12.100;2023-04-02T13:58:06;49028.13;;;-146.00;99.90
21102;BME280;10709;49.006;12.100;2023-04-02T14:00:35;49018.34;;;-146.00;100.00
21102;BME280;10709;49.006;12.100;2023-04-02T14:03:08;49010.50;;;-146.00;100.00
21102;BME280;10709;49.006;12.100;2023-04-02T14:14:08;49022.25;;;-146.00;98.23
21102;BME280;10709;49.006;12.100;2023-04-02T14:27:48;49004.63;;;-146.00;100.00
21102;BME280;10709;49.006;12.100;2023-04-02T14:36:11;48996.78;;;-146.00;100.00
21102;BME280;10709;49.006;12.100;2023-04-02T14:38:57;48996.78;;;-146.00;100.00
21102;BME280;10709;49.006;12.100;2023-04-02T14:41:40;49032.06;;;-146.00;100.00
21102;BME280;10709;49.006;12.100;2023-04-02T14:44:10;49063.41;;;-146.00;97.63
21102;BME280;10709;49.006;12.100;2023-04-02T14:46:37;49079.06;;;-146.00;95.52
21102;BME280;10709;49.006;12.100;2023-04-02T14:51:41;49079.06;;;-146.00;94.14
21102;BME280;10709;49.006;12.100;2023-04-02T14:54:19;49098.66;;;-146.00;92.74
21102;BME280;10709;49.006;12.100;2023-04-02T14:56:54;49090.81;;;-146.00;89.30
21102;BME280;10709;49.006;12.100;2023-04-02T15:05:32;49051.66;;;-146.00;84.27
21102;BME280;10709;49.006;12.100;2023-04-02T15:08:08;49043.81;;;-146.00;84.88
21102;BME280;10709;49.006;12.100;2023-04-02T15:10:55;49032.06;;;-146.00;84.45
21102;BME280;10709;49.006;12.100;2023-04-02T15:14:03;49051.66;;;-146.00;85.39
21102;BME280;10709;49.006;12.100;2023-04-02T15:16:31;49053.59;;;-146.00;83.40
21102;BME280;10709;49.006;12.100;2023-04-02T15:18:59;49020.31;;;-146.00;84.41
21102;BME280;10709;49.006;12.100;2023-04-02T15:25:12;49032.06;;;-146.00;83.87
21102;BME280;10709;49.006;12.100;2023-04-02T15:27:59;48985.03;;;-146.00;81.34
21102;BME280;10709;49.006;12.100;2023-04-02T15:30:29;48957.59;;;-146.00;81.81
21102;BME280;10709;49.006;12.100;2023-04-02T15:36:06;48938.03;;;-146.00;80.28
21102;BME280;10709;49.006;12.100;2023-04-02T15:38:43;48910.59;;;-146.00;77.67
21102;BME280;10709;49.006;12.100;2023-04-02T15:41:20;48896.88;;;-146.00;79.87
21102;BME280;10709;49.006;12.100;2023-04-02T15:44:01;48844.00;;;-146.00;77.10
21102;BME280;10709;49.006;12.100;2023-04-02T15:52:04;48855.75;;;-146.00;75.45
21102;BME280;10709;49.006;12.100;2023-04-02T16:00:21;48855.75;;;-146.00;73.69
21102;BME280;10709;49.006;12.100;2023-04-02T16:03:10;48812.63;;;-146.00;72.62
21102;BME280;10709;49.006;12.100;2023-04-02T16:10:58;48802.84;;;-146.00;72.70
21102;BME280;10709;49.006;12.100;2023-04-02T16:13:32;48804.81;;;-146.00;72.03
21102;BME280;10709;49.006;12.100;2023-04-02T16:21:37;48804.81;;;-146.00;71.76
21102;BME280;10709;49.006;12.100;2023-04-02T16:24:10;48798.94;;;-146.00;70.85
21102;BME280;10709;49.006;12.100;2023-04-02T16:29:41;48796.97;;;-146.00;71.20
21102;BME280;10709;49.006;12.100;2023-04-02T16:33:01;48808.72;;;-146.00;70.40